Messwerte Cape Lisburne

Temperatur

Temperatur
°C
1618804800 20.00 20.00 1
1618808400 21.00 21.00 1
1618812000 22.00 22.00 -1
1618815600 23.00 23.00 0
1618819200 0.00 0.00 -1
1618822800 1.00 1.00 -1
1618826400 2.00 2.00
1618830000 3.00 3.00 -1
1618833600 4.00 4.00
1618837200 5.00 5.00 -2
1618840800 6.00 6.00 -2
1618844400 7.00 7.00 -3
1618848000 8.00 8.00 -3
1618851600 9.00 9.00 -3
1618855200 10.00 10.00 -4
1618858800 11.00 11.00 -4
1618862400 12.00 12.00 -4
1618866000 13.00 13.00 -5
1618869600 14.00 14.00 -5
1618873200 15.00 15.00 -5
1618876800 16.00 16.00 -5
1618880400 17.00 17.00 -6
1618884000 18.00 18.00 -6
1618887600 19.00 19.00

Wir danken unserem Partner:

Aktuellste Messwerte

Wettercharakter
Wetter: klar
Temperatur
-6 °C
Feuchtigkeit
75 %
Wind
30 km/hWindrichtung: West
Luftdruck
1040 hPa
Messzeit: 19. April 2021, 20.00Datenquelle: METAR

Weitere Messstationen in der Nähe

Messstation Temperatur Entfernung
Point Hope -4 °C 65 km
Kivalina -4 °C 143 km
Point Lay -7 °C 163 km
Noatak -3 °C 195 km
Kotzebue -3 °C 265 km
Shishmaref -3 °C 292 km
Selawik 2 °C 360 km

Wind

Windrichtung Böen Mittelwind
° km/h km/h
1618804800 20.00 19.00 - 20.00 190° 60 45
1618808400 21.00 20.00 - 21.00 210° 40
1618812000 22.00 21.00 - 22.00 180° 45
1618815600 23.00 22.00 - 23.00 180° 60 35
1618819200 0.00 23.00 - 0.00 160° 30
1618822800 1.00 0.00 - 1.00 230° 50 40
1618826400 2.00 1.00 - 2.00
1618830000 3.00 2.00 - 3.00 240° 40 30
1618833600 4.00 3.00 - 4.00
1618837200 5.00 4.00 - 5.00 250° 45 30
1618840800 6.00 5.00 - 6.00 270° 30
1618844400 7.00 6.00 - 7.00 280° 30
1618848000 8.00 7.00 - 8.00 280° 60 35
1618851600 9.00 8.00 - 9.00 280° 65 50
1618855200 10.00 9.00 - 10.00 270° 45 40
1618858800 11.00 10.00 - 11.00 260° 50 35
1618862400 12.00 11.00 - 12.00 260° 60 40
1618866000 13.00 12.00 - 13.00 270° 45 30
1618869600 14.00 13.00 - 14.00 280° 30
1618873200 15.00 14.00 - 15.00 290° 30
1618876800 16.00 15.00 - 16.00 290° 30
1618880400 17.00 16.00 - 17.00 300° 30
1618884000 18.00 17.00 - 18.00 300° 25
1618887600 19.00 18.00 - 19.00

Ihre Wetterstation

Fehlt Ihre Wetterstation auf unserem Portal?

Schreiben Sie an network@meteonews.ch